Latest Coastal Weather Observations for Gabo Island (VIC)

IDN60701

Issued at 4:22 pm EST Wednesday 24 August 2016 (issued every 10 minutes, with the page automatically refreshed every 10 minutes)

About coastal observations | Map of coastal stations | Coastal observations for NSW | Marine services | Other Formats
Station Details ID: 084016 Name: GABO ISLAND LIGHTHOUSE Lat: -37.57 Lon: 149.92 Height: 15.2 m
Data from the previous 72 hours. | See also: Recent months at Gabo Island (VIC)
Date/Time
EST
Temp
°C
Wind Pressure Rain since
9am
mm
Weather Cloud Vis
km
Sea
Height
m
Swell
Dir  Spd
kts
Gust
kts
hPa Trend Height
m
Period
s
Dir
24/04:00pm 12.0 SSW 16 18 1011.6 - 0.0 - - - - - - -
24/03:30pm 12.0 SSW 16 18 1011.7 - 0.0 - - - - - - -
24/03:00pm 12.3 SW 18 20 1011.7 - 0.0 Fine Cloudy 40 2 1.0 - -
24/02:30pm 12.2 SSW 16 19 1011.8 - 0.0 - - - - - - -
24/02:00pm 12.3 SSW 15 17 1012.0 - 0.0 - - - - - - -
24/01:30pm 12.6 SSW 14 16 1012.3 - 0.0 - - - - - - -
24/01:00pm 12.6 SSW 12 15 1012.7 - 0.0 - - - - - - -
24/12:30pm 12.8 SSW 12 14 1013.1 - 0.0 - - - - - - -
24/12:00pm 13.2 SW 10 13 1013.7 - 0.0 - - - - - - -
24/11:30am 12.9 WSW 9 13 1014.2 - 0.0 - - - - - - -
24/11:00am 12.4 WSW 9 11 1014.9 - 0.0 - - - - - - -
24/10:30am 12.2 W 9 11 1015.1 - 0.0 - - - - - - -
24/10:00am 12.2 W 9 12 1015.3 - 0.0 - - - - - - -
24/09:30am 10.9 W 11 14 1015.3 - 0.0 - - - - - - -
24/09:00am 10.7 W 11 13 1015.5 - 1.2 Fine Mostly clear 40 1 1.0 - -
24/08:30am 9.8 WNW 10 14 1015.7 - 1.2 - - - - - - -
24/08:00am 9.0 WNW 10 13 1016.0 - 1.2 - - - - - - -
24/07:30am 8.2 WNW 11 14 1016.1 - 1.2 - - - - - - -
24/07:00am 7.8 W 11 13 1015.6 - 1.2 - - - - - - -
24/06:30am 7.4 W 8 10 1015.5 - 1.2 - - - - - - -
24/06:00am 7.6 WNW 8 9 1015.3 - 1.2 - - - - - - -
24/05:30am 8.1 WNW 9 12 1015.4 - 1.2 - - - - - - -
24/05:00am 8.3 WNW 10 12 1015.5 - 1.2 - - - - - - -
24/04:30am 8.6 NW 8 11 1015.8 - 1.2 - - - - - - -
24/04:00am 8.5 NW 9 12 1015.7 - 1.2 - - - - - - -
24/03:30am 8.3 WNW 9 14 1015.6 - 1.2 - - - - - - -
24/03:00am 8.3 WNW 10 13 1015.8 - 1.2 Fine Clear 40 <0.5 1.0 - -
24/02:30am 8.4 NW 9 11 1016.1 - 1.2 - - - - - - -
24/02:00am 8.4 WNW 10 13 1016.5 - 1.2 - - - - - - -
24/01:30am 8.3 WNW 10 13 1017.0 - 1.2 - - - - - - -
24/01:00am 8.1 WNW 9 11 1017.0 - 1.2 - - - - - - -
24/12:30am 8.6 WNW 9 12 1017.2 - 1.2 - - - - - - -
24/12:00am 8.3 NW 8 11 1017.2 - 1.2 - - - - - - -
 
Date/Time
EST
Temp
°C
Wind Pressure Rain since
9am
mm
Weather Cloud Vis
km
Sea
Height
m
Swell
Dir  Spd
kts
Gust
kts
hPa Trend Height
m
Period
s
Dir
23/11:30pm 8.5 WNW 9 11 1017.1 - 1.2 - - - - - - -
23/11:00pm 8.8 WNW 9 12 1016.8 - 1.2 - - - - - - -
23/10:30pm 8.8 NW 9 12 1016.9 - 1.2 - - - - - - -
23/10:00pm 9.0 NW 10 13 1017.1 - 1.2 - - - - - - -
23/09:30pm 9.0 WNW 8 11 1017.1 - 1.2 - - - - - - -
23/09:00pm 9.5 W 9 10 1017.1 - 1.2 Fine Clear 30 1 1.0 - -
23/08:30pm 10.7 WSW 12 15 1016.9 - 1.2 - - - - - - -
23/08:00pm 11.2 WSW 15 17 1016.4 - 1.2 - - - - - - -
23/07:30pm 11.1 WSW 15 18 1016.4 - 1.2 - - - - - - -
23/07:00pm 11.4 SW 17 20 1016.3 - 1.2 - - - - - - -
23/06:30pm 11.2 WSW 17 20 1016.6 - 1.2 - - - - - - -
23/06:00pm 11.6 SW 14 17 1016.7 - 1.2 - - - - - - -
23/05:30pm 11.8 SW 17 20 1016.6 - 1.2 - - - - - - -
23/05:00pm 12.2 SW 19 23 1016.1 - 1.2 - - - - - - -
23/04:30pm 12.6 SW 19 22 1015.6 - 1.2 - - - - - - -
23/04:00pm 12.7 SW 19 23 1015.4 - 1.2 - - - - - - -
23/03:30pm 13.1 SW 20 24 1015.3 - 1.2 - - - - - - -
23/03:00pm 13.1 WSW 20 24 1015.3 - 1.2 Fine Partly cloudy 30 2 1.0 - -
23/02:30pm 12.9 SW 22 25 1015.0 - 1.2 - - - - - - -
23/02:00pm 13.2 SW 20 25 1015.1 - 1.2 - - - - - - -
23/01:30pm 13.3 SW 20 24 1014.9 - 1.2 - - - - - - -
23/01:00pm 13.2 SW 21 26 1014.9 - 1.2 - - - - - - -
23/12:30pm 13.1 SW 20 25 1014.9 - 1.2 - - - - - - -
23/12:00pm 12.9 SW 17 20 1015.2 - 1.2 - - - - - - -
23/11:30am 12.3 SW 21 25 1015.5 - 1.2 - - - - - - -
23/11:03am 12.2 SSW 19 29 1015.6 - 1.2 - - - - - - -
23/11:00am 12.5 SSW 18 22 1015.7 - 1.2 - - - - - - -
23/10:35am 12.2 SSW 20 22 1015.7 - 1.2 - - - - - - -
23/10:30am 11.8 WSW 17 22 1015.7 - 1.2 - - - - - - -
23/10:00am 10.9 W 13 17 1015.6 - 1.2 - - - - - - -
23/09:30am 10.5 WSW 17 21 1015.6 - 0.6 - - - - - - -
23/09:00am 9.8 W 15 19 1015.4 - 8.0 Rain Cloudy - 2 1.0 - -
23/08:30am 9.9 W 16 21 1015.3 - 7.8 - - - - - - -
23/08:00am 9.8 W 17 20 1015.0 - 7.0 - - - - - - -
23/07:30am 10.1 WSW 17 21 1014.8 - 4.0 - - - - - - -
23/07:00am 10.1 WSW 17 21 1014.2 - 2.8 - - - - - - -
23/06:30am 10.1 W 17 23 1014.0 - 2.2 - - - - - - -
23/06:00am 10.1 W 15 21 1013.7 - 1.6 Rain - - - - - -
23/05:30am 10.0 W 15 19 1013.4 - 0.6 - - - - - - -
23/05:00am 10.2 W 13 16 1013.2 - 0.6 - - - - - - -
23/04:30am 9.7 WNW 7 11 1013.3 - 0.6 - - - - - - -
23/04:00am 9.7 WNW 6 9 1013.1 - 0.6 - - - - - - -
23/03:30am 9.9 W 12 15 1013.1 - 0.0 - - - - - - -
23/03:00am 9.6 W 11 15 1012.8 - 0.0 Fine Mostly cloudy 30 1 1.0 - -
23/02:30am 9.2 WNW 10 13 1012.9 - 0.0 - - - - - - -
23/02:00am 9.4 WNW 10 12 1013.0 - 0.0 - - - - - - -
23/01:30am 10.5 WSW 12 15 1013.4 - 0.0 - - - - - - -
23/01:00am 10.0 W 10 12 1013.5 - 0.0 - - - - - - -
23/12:30am 9.9 WNW 9 11 1013.6 - 0.0 - - - - - - -
23/12:00am 9.6 WNW 9 11 1013.4 - 0.0 - - - - - - -
 
Date/Time
EST
Temp
°C
Wind Pressure Rain since
9am
mm
Weather Cloud Vis
km
Sea
Height
m
Swell
Dir  Spd
kts
Gust
kts
hPa Trend Height
m
Period
s
Dir
22/11:30pm 9.8 W 8 9 1013.3 - 0.0 - - - - - - -
22/11:00pm 10.2 WNW 8 10 1013.4 - 0.0 - - - - - - -
22/10:30pm 9.9 WNW 9 11 1013.5 - 0.0 - - - - - - -
22/10:00pm 9.9 W 8 10 1013.6 - 0.0 - - - - - - -
22/09:30pm 10.6 W 9 11 1013.7 - 0.0 - - - - - - -
22/09:00pm 11.0 WNW 9 10 1014.1 - 0.0 Fine Cloudy 30 1 1.0 - -
22/08:30pm 11.2 NW 6 7 1014.1 - 0.0 - - - - - - -
22/08:00pm 11.4 WNW 6 9 1014.2 - 0.0 - - - - - - -
22/07:30pm 12.1 W 10 12 1014.1 - 0.0 - - - - - - -
22/07:00pm 12.1 W 8 10 1014.0 - 0.0 - - - - - - -
22/06:30pm 12.2 WNW 7 8 1013.8 - 0.0 - - - - - - -
22/06:00pm 12.6 WNW 8 9 1013.4 - 0.0 - - - - - - -
22/05:30pm 13.0 W 4 8 1013.2 - 0.0 - - - - - - -
22/05:00pm 13.2 NE 3 4 1013.3 - 0.0 - - - - - - -
22/04:30pm 13.3 ENE 9 10 1013.1 - 0.0 - - - - - - -
22/04:00pm 14.0 NE 8 9 1013.0 - 0.0 - - - - - - -
22/03:30pm 14.0 NE 9 11 1013.0 - 0.0 - - - - - - -
22/03:00pm 14.5 NE 11 15 1013.0 - 0.0 Fine Partly cloudy 40 1 1.0 - -
22/02:30pm 14.7 NE 10 12 1013.5 - 0.0 - - - - - - -
22/02:00pm 14.6 E 3 8 1013.8 - 0.0 - - - - - - -
22/01:30pm 14.2 E 4 5 1013.9 - 0.0 - - - - - - -
22/01:00pm 14.3 E 3 4 1014.3 - 0.0 - - - - - - -
22/12:30pm 14.5 E 4 6 1014.5 - 0.0 - - - - - - -
22/12:00pm 13.4 NE 4 5 1014.8 - 0.0 - - - - - - -
22/11:30am 13.3 NNE 5 6 1015.2 - 0.0 - - - - - - -
22/11:00am 12.3 NNE 5 6 1015.7 - 0.0 - - - - - - -
22/10:30am 11.4 NW 6 7 1016.0 - 0.0 - - - - - - -
22/10:00am 11.0 W 8 9 1016.1 - 0.0 - - - - - - -
22/09:30am 10.8 W 8 9 1016.1 - 0.0 - - - - - - -
22/09:00am 10.8 WNW 7 9 1016.1 - 0.6 Rain Cloudy 30 <0.5 1.0 - -
22/08:30am 10.8 NW 8 10 1016.0 - 0.6 - - - - - - -
22/08:00am 10.9 WNW 8 11 1016.0 - 0.6 - - - - - - -
22/07:30am 10.9 NW 8 13 1015.8 - 0.6 - - - - - - -
22/07:00am 10.4 WNW 7 10 1015.7 - 0.6 - - - - - - -
22/06:30am 9.4 W 4 6 1015.1 - 0.6 - - - - - - -
22/06:00am 10.1 CALM 0 0 1014.6 - 0.6 - - - - - - -
22/05:30am 9.8 ENE 1 4 1014.5 - 0.6 - - - - - - -
22/05:00am 9.0 NNE 3 4 1014.4 - 0.6 - - - - - - -
22/04:30am 9.2 NW 6 7 1014.4 - 0.6 - - - - - - -
22/04:00am 8.8 NW 6 7 1014.2 - 0.6 - - - - - - -
22/03:30am 9.5 WNW 5 6 1014.1 - 0.6 - - - - - - -
22/03:00am 9.2 NW 6 7 1014.2 - 0.6 Fine Mostly cloudy 40 1 1.0 - -
22/02:30am 9.9 NW 6 7 1014.2 - 0.6 - - - - - - -
22/02:00am 9.4 NW 7 8 1014.5 - 0.6 - - - - - - -
22/01:30am 9.0 NW 8 10 1014.4 - 0.6 - - - - - - -
22/01:00am 9.4 NW 7 8 1014.5 - 0.6 - - - - - - -
22/12:30am 9.6 WNW 6 7 1014.6 - 0.6 - - - - - - -
22/12:00am 10.9 N 4 4 1014.7 - 0.6 - - - - - - -
 
Date/Time
EST
Temp
°C
Wind Pressure Rain since
9am
mm
Weather Cloud Vis
km
Sea
Height
m
Swell
Dir  Spd
kts
Gust
kts
hPa Trend Height
m
Period
s
Dir
21/11:30pm 9.6 NW 5 8 1014.8 - 0.6 - - - - - - -
21/11:00pm 10.0 NW 5 7 1015.0 - 0.6 - - - - - - -
21/10:30pm 9.6 NNW 6 7 1015.1 - 0.6 - - - - - - -
21/10:00pm 9.8 N 7 8 1015.1 - 0.6 - - - - - - -
21/09:30pm 8.9 N 6 7 1015.1 - 0.6 - - - - - - -
21/09:00pm 9.5 N 6 7 1015.2 - 0.6 Fine Clear 40 1 1.0 - -
21/08:30pm 9.5 N 7 7 1015.3 - 0.6 - - - - - - -
21/08:00pm 10.0 NW 5 5 1015.1 - 0.6 - - - - - - -
21/07:30pm 11.0 NW 5 6 1015.0 - 0.6 - - - - - - -
21/07:00pm 11.4 WSW 3 5 1014.9 - 0.6 - - - - - - -
21/06:30pm 12.0 S 4 5 1014.6 - 0.6 - - - - - - -
21/06:00pm 12.0 S 4 5 1014.4 - 0.6 - - - - - - -
21/05:30pm 12.3 S 6 6 1014.3 - 0.6 - - - - - - -
21/05:00pm 12.8 S 7 9 1014.2 - 0.6 - - - - - - -
21/04:30pm 13.3 SSW 8 9 1014.1 - 0.6 - - - - - - -

Other Formats:

Comma delimited format used in spreadsheet applications
http://www.bom.gov.au/fwo/IDN60701/IDN60701.94933.axf

JavaScript Object Notation format (JSON) in row-major order
http://www.bom.gov.au/fwo/IDN60701/IDN60701.94933.json